createdAt,value
2022-11-04T00:03:22.707Z,78.01
2022-11-04T00:08:26.280Z,78.12
2022-11-04T00:13:29.696Z,78.51
2022-11-04T00:18:31.869Z,78.44
2022-11-04T00:23:50.222Z,78.20
2022-11-04T00:28:53.001Z,79.12
2022-11-04T00:33:56.900Z,79.30
2022-11-04T00:38:57.879Z,79.95
2022-11-04T00:44:00.498Z,78.76
2022-11-04T00:49:02.665Z,79.42
2022-11-04T00:54:03.465Z,79.66
2022-11-04T00:59:04.601Z,79.44
2022-11-04T01:04:06.822Z,79.61
2022-11-04T01:09:10.000Z,79.34
2022-11-04T01:14:10.957Z,79.95
2022-11-04T01:19:13.431Z,79.92
2022-11-04T01:24:14.246Z,80.42
2022-11-04T01:29:15.129Z,79.96
2022-11-04T01:34:17.300Z,79.99
2022-11-04T01:39:18.102Z,81.29
2022-11-04T01:44:47.696Z,80.96
2022-11-04T01:49:53.576Z,80.86
2022-11-04T01:54:57.309Z,80.91
2022-11-04T02:00:02.398Z,80.24
2022-11-04T02:05:14.260Z,79.95
2022-11-04T02:10:15.220Z,79.21
2022-11-04T02:15:16.210Z,80.45
2022-11-04T02:20:41.748Z,79.60
2022-11-04T02:26:10.402Z,80.28
2022-11-04T02:31:19.082Z,80.17
2022-11-04T02:36:26.338Z,79.54
2022-11-04T02:41:37.298Z,80.00
2022-11-04T02:46:47.169Z,79.97
2022-11-04T02:51:52.626Z,79.57
2022-11-04T02:56:57.239Z,80.25
2022-11-04T03:02:02.315Z,80.02
2022-11-04T03:07:07.255Z,78.47
2022-11-04T03:12:14.961Z,79.13
2022-11-04T03:17:23.510Z,79.40
2022-11-04T03:22:28.153Z,78.67
2022-11-04T03:27:36.264Z,79.19
2022-11-04T03:32:44.872Z,78.81
2022-11-04T03:37:48.528Z,80.44
2022-11-04T03:42:57.045Z,81.60
2022-11-04T03:47:59.498Z,81.75
2022-11-04T03:53:01.434Z,81.48
2022-11-04T03:58:09.570Z,81.06
2022-11-04T04:03:18.982Z,81.67
2022-11-04T04:08:33.020Z,82.07
2022-11-04T04:13:40.024Z,82.12
2022-11-04T04:18:52.620Z,82.31
2022-11-04T04:24:18.906Z,81.46
2022-11-04T04:29:21.182Z,81.41
2022-11-04T04:34:25.381Z,82.07
2022-11-04T04:39:46.574Z,82.60
2022-11-04T04:45:03.347Z,82.08
2022-11-04T04:50:06.856Z,81.97
2022-11-04T04:55:08.771Z,82.25
2022-11-04T05:00:13.364Z,81.83
2022-11-04T05:10:21.559Z,81.50
2022-11-04T05:15:22.394Z,83.42
2022-11-04T05:20:25.694Z,83.49
2022-11-04T05:25:26.581Z,83.22
2022-11-04T05:30:27.549Z,82.44
2022-11-04T05:35:29.758Z,82.90
2022-11-04T05:40:30.566Z,83.53
2022-11-04T05:45:31.543Z,85.29
2022-11-04T05:50:34.916Z,85.13
2022-11-04T05:55:35.718Z,86.47
2022-11-04T06:00:36.533Z,86.63
2022-11-04T06:05:38.800Z,86.72
2022-11-04T06:10:39.578Z,86.82
2022-11-04T06:15:40.367Z,87.88
2022-11-04T06:20:42.490Z,87.68
2022-11-04T06:25:43.335Z,87.38
2022-11-04T06:30:44.241Z,87.99
2022-11-04T06:35:46.374Z,87.93
2022-11-04T06:40:47.194Z,88.07
2022-11-04T06:45:54.391Z,88.04
2022-11-04T06:50:56.565Z,86.97
2022-11-04T06:56:04.022Z,86.76
2022-11-04T07:01:11.120Z,86.50
2022-11-04T07:06:15.819Z,86.47
2022-11-04T07:11:17.128Z,84.44
2022-11-04T07:16:19.066Z,84.44
2022-11-04T07:21:21.238Z,84.43
2022-11-04T07:26:22.683Z,83.40
2022-11-04T07:31:23.524Z,83.05
2022-11-04T07:36:25.705Z,81.62
2022-11-04T07:41:26.513Z,81.02
2022-11-04T07:46:27.625Z,81.38
2022-11-04T07:51:32.280Z,80.28
2022-11-04T07:56:33.112Z,79.28
2022-11-04T08:01:34.483Z,80.01
2022-11-04T08:06:36.682Z,80.91
2022-11-04T08:11:37.543Z,81.63
2022-11-04T08:16:38.392Z,81.95
2022-11-04T08:21:40.568Z,82.17
2022-11-04T08:26:42.244Z,82.48
2022-11-04T08:31:43.409Z,81.36
2022-11-04T08:36:46.561Z,81.40
2022-11-04T08:41:48.125Z,81.17
2022-11-04T08:46:49.810Z,81.32
2022-11-04T08:51:56.799Z,79.73
2022-11-04T08:56:57.795Z,78.42
2022-11-04T09:01:58.689Z,78.31
2022-11-04T09:07:07.849Z,78.60
2022-11-04T09:12:10.964Z,79.18
2022-11-04T09:17:11.887Z,79.79
2022-11-04T09:22:14.105Z,79.61
2022-11-04T09:27:15.191Z,81.17
2022-11-04T09:32:16.132Z,80.91
2022-11-04T09:37:18.333Z,81.88
2022-11-04T09:42:34.483Z,83.13
2022-11-04T09:47:37.634Z,82.63
2022-11-04T09:52:44.511Z,84.27
2022-11-04T09:57:46.054Z,84.86
2022-11-04T10:03:00.962Z,86.14
2022-11-04T10:08:24.787Z,86.12
2022-11-04T10:13:36.609Z,87.24
2022-11-04T10:18:49.778Z,86.83
2022-11-04T10:24:07.754Z,87.96
2022-11-04T10:29:24.764Z,88.72
2022-11-04T10:34:33.586Z,88.57
2022-11-04T10:39:40.929Z,88.63
2022-11-04T10:44:41.795Z,88.31
2022-11-04T10:50:26.384Z,88.32
2022-11-04T10:55:32.013Z,87.85
2022-11-04T11:00:41.478Z,88.46
2022-11-04T11:05:42.382Z,88.59
2022-11-04T11:10:52.814Z,88.46
2022-11-04T11:16:07.083Z,89.32
2022-11-04T11:21:12.085Z,88.59
2022-11-04T11:26:17.426Z,89.11
2022-11-04T11:31:24.386Z,89.11
2022-11-04T11:36:27.880Z,89.45
2022-11-04T11:41:32.378Z,88.81
2022-11-04T11:46:35.690Z,89.65
2022-11-04T11:51:38.853Z,89.77
2022-11-04T11:57:12.123Z,89.25
2022-11-04T12:02:26.708Z,89.38
2022-11-04T12:13:18.472Z,90.90
2022-11-04T12:18:58.822Z,90.49
2022-11-04T12:24:06.839Z,90.35
2022-11-04T12:29:29.782Z,89.23
2022-11-04T12:34:40.617Z,88.97
2022-11-04T12:39:59.294Z,89.58
2022-11-04T12:45:16.916Z,90.55
2022-11-04T12:50:35.557Z,89.95
2022-11-04T12:55:48.026Z,89.91
2022-11-04T13:00:59.971Z,90.04
2022-11-04T13:06:04.837Z,89.40
2022-11-04T13:11:22.760Z,89.73
2022-11-04T13:16:25.282Z,89.24
2022-11-04T13:21:28.527Z,89.89
2022-11-04T13:26:29.317Z,89.19
2022-11-04T13:31:39.667Z,89.17
2022-11-04T13:36:47.591Z,88.81
2022-11-04T13:42:10.695Z,89.62
2022-11-04T13:47:22.142Z,89.56
2022-11-04T13:52:29.329Z,90.66
2022-11-04T13:57:32.273Z,90.31
2022-11-04T14:02:44.860Z,90.39
2022-11-04T14:08:16.849Z,89.88
2022-11-04T14:13:51.299Z,90.25
2022-11-04T14:18:54.832Z,90.35
2022-11-04T14:23:58.021Z,90.88
2022-11-04T14:29:03.630Z,91.13
2022-11-04T14:34:06.947Z,90.97
2022-11-04T14:39:21.990Z,91.57
2022-11-04T14:44:30.849Z,91.26
2022-11-04T14:49:43.503Z,91.05
2022-11-04T14:54:44.631Z,90.88
2022-11-04T14:59:45.845Z,91.84
2022-11-04T15:04:51.620Z,91.01
2022-11-04T15:09:52.422Z,91.04
2022-11-04T15:14:53.442Z,90.19
2022-11-04T15:19:59.569Z,90.51
2022-11-04T15:25:05.988Z,89.66
2022-11-04T15:30:21.551Z,89.50
2022-11-04T15:35:24.216Z,89.04
2022-11-04T15:40:27.604Z,90.01
2022-11-04T15:45:39.115Z,90.01
2022-11-04T15:50:42.972Z,90.41
2022-11-04T15:55:43.984Z,91.03
2022-11-04T16:00:53.658Z,91.16
2022-11-04T16:06:07.753Z,90.99
2022-11-04T16:11:17.488Z,91.68
2022-11-04T16:16:25.556Z,91.01
2022-11-04T16:21:30.865Z,91.18
2022-11-04T16:26:38.253Z,91.70
2022-11-04T16:31:39.044Z,91.92
2022-11-04T16:36:41.510Z,91.98
2022-11-04T16:41:42.705Z,92.24
2022-11-04T16:46:45.410Z,91.60
2022-11-04T16:51:51.211Z,91.71
2022-11-04T16:56:52.098Z,91.61
2022-11-04T17:01:53.112Z,92.00
2022-11-04T17:06:55.553Z,91.63
2022-11-04T17:11:56.385Z,91.86
2022-11-04T17:17:00.138Z,92.10
2022-11-04T17:22:05.248Z,91.81
2022-11-04T17:27:06.499Z,91.52
2022-11-04T17:32:07.545Z,91.84
2022-11-04T17:37:11.990Z,91.40
2022-11-04T17:42:30.440Z,91.75
2022-11-04T17:47:36.469Z,91.48
2022-11-04T17:52:40.054Z,91.07
2022-11-04T17:57:40.931Z,92.14
2022-11-04T18:02:42.984Z,91.12
2022-11-04T18:07:48.227Z,91.42
2022-11-04T18:12:49.463Z,91.43
2022-11-04T18:17:52.626Z,91.56
2022-11-04T18:22:54.837Z,91.90
2022-11-04T18:27:55.636Z,91.54
2022-11-04T18:32:58.553Z,91.60
2022-11-04T18:38:00.734Z,91.87
2022-11-04T18:43:08.500Z,91.70
2022-11-04T18:48:10.169Z,92.38
2022-11-04T18:53:13.065Z,92.18
2022-11-04T18:58:13.909Z,92.76
2022-11-04T19:03:14.685Z,92.43
2022-11-04T19:08:16.890Z,92.55
2022-11-04T19:13:20.606Z,92.71
2022-11-04T19:18:21.507Z,92.28
2022-11-04T19:23:23.766Z,92.71
2022-11-04T19:28:40.387Z,92.95
2022-11-04T19:33:45.589Z,92.85
2022-11-04T19:38:48.319Z,92.97
2022-11-04T19:43:49.241Z,92.84
2022-11-04T19:48:50.035Z,92.82
2022-11-04T19:53:52.256Z,92.22
2022-11-04T19:58:53.179Z,92.73
2022-11-04T20:03:54.157Z,92.34
2022-11-04T20:08:56.312Z,92.29
2022-11-04T20:13:57.297Z,92.39
2022-11-04T20:19:01.416Z,92.11
2022-11-04T20:24:06.512Z,91.62
2022-11-04T20:29:08.177Z,92.14
2022-11-04T20:34:12.266Z,91.71
2022-11-04T20:39:17.122Z,91.49
2022-11-04T20:44:18.053Z,92.00
2022-11-04T20:49:18.859Z,91.71
2022-11-04T20:54:21.631Z,91.28
2022-11-04T20:59:22.496Z,90.97
2022-11-04T21:04:23.401Z,90.93
2022-11-04T21:09:25.671Z,91.17
2022-11-04T21:14:26.495Z,90.69
2022-11-04T21:19:27.286Z,91.07
2022-11-04T21:24:29.489Z,91.03
2022-11-04T21:29:30.315Z,91.41
2022-11-04T21:34:31.094Z,90.99
2022-11-04T21:39:33.219Z,90.60
2022-11-04T21:44:34.048Z,90.87
2022-11-04T21:49:34.964Z,91.37
2022-11-04T21:54:37.456Z,91.14
2022-11-04T21:59:38.262Z,91.01
2022-11-04T22:04:39.061Z,91.61
2022-11-04T22:09:41.232Z,91.15
2022-11-04T22:14:42.117Z,91.15
2022-11-04T22:19:42.909Z,91.25
2022-11-04T22:25:03.023Z,91.18
2022-11-04T22:30:03.976Z,91.18
2022-11-04T22:35:05.255Z,91.08
2022-11-04T22:40:09.191Z,91.43
2022-11-04T22:45:16.347Z,91.89
2022-11-04T22:50:17.892Z,91.50
2022-11-04T22:55:20.012Z,92.36
2022-11-04T23:00:22.484Z,92.13
2022-11-04T23:05:23.266Z,92.12
2022-11-04T23:10:42.776Z,92.39
2022-11-04T23:16:00.920Z,92.14
2022-11-04T23:21:19.520Z,91.84
2022-11-04T23:26:26.561Z,91.63
2022-11-04T23:31:28.573Z,91.71
2022-11-04T23:36:47.011Z,91.77
2022-11-04T23:42:06.488Z,91.94
2022-11-04T23:47:24.999Z,92.31
2022-11-04T23:52:43.397Z,91.87
2022-11-04T23:58:03.181Z,92.45
